Time;durP1;ratioP1;P1;durP2;ratioP2;P2;SDS_P1;SDS_P2;PMS_P1;PMS_P2;Temp;Humidity;BMP_temperature;BMP_pressure;BME280_temperature;BME280_humidity;BME280_pressure;Samples;Min_cycle;Max_cycle;Signal;HPM_P1;HPM_P2
2023/08/11 00:00:58;;;;;;;7.63;6.20;;;;;;;16.63;100.00;101881.25;5281261;28;20128;-69
2023/08/11 00:03:29;;;;;;;8.70;6.60;;;;;;;16.73;100.00;101872.38;5291428;28;20039;-69
2023/08/11 00:06:01;;;;;;;7.97;6.10;;;;;;;16.78;100.00;101875.50;5280053;28;20024;-69
2023/08/11 00:08:32;;;;;;;9.35;5.97;;;;;;;16.82;100.00;101877.84;5281026;28;20115;-69
2023/08/11 00:11:04;;;;;;;7.22;6.00;;;;;;;16.73;100.00;101878.59;5280614;28;21591;-69
2023/08/11 00:13:35;;;;;;;7.50;6.15;;;;;;;16.61;100.00;101879.66;5284775;28;20115;-69
2023/08/11 00:16:07;;;;;;;8.82;6.18;;;;;;;16.74;100.00;101882.16;5284555;28;20052;-69
2023/08/11 00:18:39;;;;;;;7.53;5.80;;;;;;;16.73;100.00;101877.75;5276812;28;20745;-69
2023/08/11 00:21:12;;;;;;;8.93;5.97;;;;;;;16.71;100.00;101874.34;5294519;28;20833;-69
2023/08/11 00:23:44;;;;;;;7.80;6.32;;;;;;;16.71;100.00;101877.88;5276612;28;20147;-70
2023/08/11 00:26:16;;;;;;;6.63;5.75;;;;;;;16.70;100.00;101875.31;5280371;28;20573;-69
2023/08/11 00:28:48;;;;;;;6.95;5.85;;;;;;;16.66;100.00;101881.00;5288865;28;20043;-69
2023/08/11 00:31:19;;;;;;;10.35;6.53;;;;;;;16.57;100.00;101878.22;5283630;28;20390;-69
2023/08/11 00:33:51;;;;;;;10.05;6.55;;;;;;;16.62;100.00;101876.81;5285887;28;20035;-69
2023/08/11 00:36:23;;;;;;;8.65;6.63;;;;;;;16.58;100.00;101874.53;5284535;28;20402;-69
2023/08/11 00:39:00;;;;;;;7.80;6.32;;;;;;;16.61;100.00;101879.66;5286273;28;20039;-69
2023/08/11 00:41:32;;;;;;;9.05;6.20;;;;;;;16.56;100.00;101865.72;5295104;28;20043;-69
2023/08/11 00:44:04;;;;;;;7.05;6.03;;;;;;;16.45;100.00;101870.22;5296613;28;20020;-70
2023/08/11 00:46:36;;;;;;;10.00;7.18;;;;;;;16.47;100.00;101867.34;5301591;28;20024;-69
2023/08/11 00:49:09;;;;;;;9.05;6.97;;;;;;;16.56;100.00;101857.66;5292338;28;20098;-69
2023/08/11 00:51:41;;;;;;;8.48;6.63;;;;;;;16.33;100.00;101863.16;5292169;28;20078;-69
2023/08/11 00:54:15;;;;;;;9.43;7.03;;;;;;;16.38;100.00;101854.69;5305701;28;20020;-70
2023/08/11 00:56:48;;;;;;;7.55;6.57;;;;;;;16.29;100.00;101856.31;5289041;28;20471;-69
2023/08/11 00:59:19;;;;;;;8.77;7.60;;;;;;;16.27;100.00;101851.06;5284403;28;20084;-69
2023/08/11 01:01:51;;;;;;;8.07;6.82;;;;;;;16.31;100.00;101848.13;5279627;28;20387;-69
2023/08/11 01:04:22;;;;;;;9.02;8.13;;;;;;;16.24;100.00;101847.75;5279058;28;20036;-69
2023/08/11 01:07:12;;;;;;;10.43;8.25;;;;;;;16.19;100.00;101840.09;5280580;28;20318;-69
2023/08/11 01:10:22;;;;;;;10.52;8.52;;;;;;;16.28;100.00;101841.16;5281293;28;20496;-69
2023/08/11 01:13:05;;;;;;;9.85;8.50;;;;;;;16.21;100.00;101843.50;5266778;28;20429;-69
2023/08/11 01:15:40;;;;;;;11.75;9.30;;;;;;;16.16;100.00;101843.03;5260706;28;20925;-69
2023/08/11 01:18:12;;;;;;;12.43;9.40;;;;;;;16.21;100.00;101839.97;5276456;28;20043;-69
2023/08/11 01:20:45;;;;;;;10.75;9.30;;;;;;;16.07;100.00;101835.75;5274775;28;20036;-69
2023/08/11 01:23:19;;;;;;;11.40;9.38;;;;;;;16.17;100.00;101836.66;5284222;28;20047;-69
2023/08/11 01:25:54;;;;;;;;;;;;;;;16.27;100.00;101829.50;5278499;28;20082;-69
2023/08/11 01:28:26;;;;;;;11.70;9.57;;;;;;;16.15;100.00;101835.94;5292583;28;19920;-69
2023/08/11 01:30:58;;;;;;;11.45;9.88;;;;;;;16.13;100.00;101837.91;5287237;28;20748;-69
2023/08/11 01:33:29;;;;;;;12.23;9.60;;;;;;;16.01;100.00;101833.53;5278360;28;20027;-69
2023/08/11 01:36:01;;;;;;;11.55;10.35;;;;;;;16.03;100.00;101826.19;5280163;28;20501;-69
2023/08/11 01:38:32;;;;;;;12.82;10.43;;;;;;;16.09;100.00;101831.09;5279712;28;20024;-69
2023/08/11 01:41:03;;;;;;;11.85;10.57;;;;;;;16.05;100.00;101835.88;5281161;28;20022;-69
2023/08/11 01:43:36;;;;;;;12.63;10.88;;;;;;;15.98;100.00;101834.66;5280233;28;20158;-69
2023/08/11 01:46:10;;;;;;;13.43;11.65;;;;;;;15.96;100.00;101836.63;5284630;28;20458;-69
2023/08/11 01:48:41;;;;;;;15.43;10.52;;;;;;;16.00;100.00;101837.25;5281540;28;20479;-69
2023/08/11 01:51:13;;;;;;;12.35;11.02;;;;;;;15.93;100.00;101836.03;5279762;28;20024;-69
2023/08/11 01:53:44;;;;;;;15.30;11.80;;;;;;;15.93;100.00;101836.03;5281171;28;20084;-69
2023/08/11 01:56:17;;;;;;;15.13;11.50;;;;;;;15.89;100.00;101827.34;5276075;28;20024;-69
2023/08/11 01:58:49;;;;;;;12.82;10.90;;;;;;;16.00;100.00;101827.31;5279260;28;20105;-68
2023/08/11 02:01:21;;;;;;;14.18;11.20;;;;;;;15.92;100.00;101828.97;5287466;28;20044;-69
2023/08/11 02:03:52;;;;;;;13.02;11.60;;;;;;;15.94;100.00;101819.75;5280268;28;20032;-69
2023/08/11 02:06:25;;;;;;;12.32;11.02;;;;;;;15.87;100.00;101815.88;5286296;28;20058;-69
2023/08/11 02:08:57;;;;;;;13.80;11.20;;;;;;;15.82;100.00;101815.38;5295834;28;20084;-69
2023/08/11 02:11:28;;;;;;;14.13;11.35;;;;;;;15.78;100.00;101822.00;5288115;28;20119;-69
2023/08/11 02:13:59;;;;;;;13.52;11.60;;;;;;;15.86;100.00;101827.63;5289141;28;20039;-69
2023/08/11 02:16:32;;;;;;;12.75;11.45;;;;;;;15.76;100.00;101814.09;5285267;28;20431;-69
2023/08/11 02:19:04;;;;;;;12.65;10.98;;;;;;;15.79;100.00;101811.13;5296986;28;20067;-69
2023/08/11 02:21:38;;;;;;;12.48;11.15;;;;;;;15.80;100.00;101810.16;5284435;28;20101;-69
2023/08/11 02:24:09;;;;;;;13.67;11.23;;;;;;;15.79;100.00;101807.59;5289825;28;20359;-69
2023/08/11 02:26:40;;;;;;;14.13;12.38;;;;;;;15.83;100.00;101807.19;5285465;28;20032;-69
2023/08/11 02:29:12;;;;;;;14.68;13.15;;;;;;;15.73;100.00;101811.66;5288778;28;20039;-69
2023/08/11 02:31:43;;;;;;;13.38;11.95;;;;;;;15.78;100.00;101808.56;5286389;28;20102;-69
2023/08/11 02:34:15;;;;;;;15.40;12.15;;;;;;;15.83;100.00;101817.13;5300761;28;20365;-69
2023/08/11 02:36:47;;;;;;;14.25;12.45;;;;;;;15.77;100.00;101817.63;5294402;28;20394;-69
2023/08/11 02:39:18;;;;;;;15.82;11.93;;;;;;;15.69;100.00;101815.53;5288666;28;20390;-69
2023/08/11 02:41:50;;;;;;;15.02;12.10;;;;;;;15.63;100.00;101824.97;5286262;28;20032;-69
2023/08/11 02:44:22;;;;;;;15.20;13.10;;;;;;;15.62;100.00;101825.09;5291417;28;20036;-69
2023/08/11 02:46:53;;;;;;;14.90;13.18;;;;;;;15.71;100.00;101823.50;5288748;28;20089;-69
2023/08/11 02:49:25;;;;;;;14.32;12.48;;;;;;;15.60;100.00;101825.22;5291429;28;20024;-69
2023/08/11 02:51:56;;;;;;;14.90;13.38;;;;;;;15.63;100.00;101822.28;5282227;28;20028;-69
2023/08/11 02:54:27;;;;;;;15.70;13.63;;;;;;;15.62;100.00;101820.56;5286662;28;20043;-69
2023/08/11 02:56:59;;;;;;;15.63;13.15;;;;;;;15.62;100.00;101822.41;5283212;28;20097;-69
2023/08/11 02:59:30;;;;;;;14.82;13.25;;;;;;;15.57;100.00;101819.22;5298945;28;20017;-69
2023/08/11 03:02:02;;;;;;;13.95;11.93;;;;;;;15.52;100.00;101819.63;5283996;28;20765;-70
2023/08/11 03:04:36;;;;;;;14.13;12.63;;;;;;;15.55;100.00;101821.19;5293133;28;20039;-69
2023/08/11 03:07:09;;;;;;;14.52;12.85;;;;;;;15.57;100.00;101812.03;5288958;28;20497;-69
2023/08/11 03:09:40;;;;;;;15.40;12.25;;;;;;;15.57;100.00;101813.84;5284305;28;20691;-69
2023/08/11 03:12:12;;;;;;;15.35;13.75;;;;;;;15.43;100.00;101813.16;5286949;28;20031;-69
2023/08/11 03:14:43;;;;;;;14.57;13.07;;;;;;;15.40;100.00;101813.41;5282493;28;20038;-69
2023/08/11 03:17:15;;;;;;;15.38;13.77;;;;;;;15.41;100.00;101809.72;5294656;28;20070;-69
2023/08/11 03:19:46;;;;;;;14.55;13.15;;;;;;;15.40;100.00;101807.19;5299033;28;20406;-69
2023/08/11 03:22:18;;;;;;;17.30;13.18;;;;;;;15.41;100.00;101804.34;5281777;28;20028;-69
2023/08/11 03:24:49;;;;;;;15.13;13.52;;;;;;;15.45;100.00;101805.81;5286359;28;20059;-69
2023/08/11 03:27:21;;;;;;;15.27;13.68;;;;;;;15.34;100.00;101807.66;5291409;28;20031;-69
2023/08/11 03:29:52;;;;;;;14.85;13.18;;;;;;;15.26;100.00;101811.84;5287603;28;20028;-69
2023/08/11 03:32:23;;;;;;;15.02;13.25;;;;;;;15.23;100.00;101811.25;5285369;28;20027;-69
2023/08/11 03:34:55;;;;;;;16.10;13.95;;;;;;;15.22;100.00;101801.44;5286403;28;20016;-69
2023/08/11 03:37:27;;;;;;;16.75;13.90;;;;;;;15.31;100.00;101811.47;5299142;28;20119;-69
2023/08/11 03:39:58;;;;;;;15.35;13.65;;;;;;;15.19;100.00;101799.03;5288320;28;20036;-69
2023/08/11 03:42:30;;;;;;;15.68;13.90;;;;;;;15.28;100.00;101799.13;5283274;28;20417;-69
2023/08/11 03:45:01;;;;;;;16.40;14.63;;;;;;;15.20;100.00;101798.88;5289979;28;20024;-69
2023/08/11 03:47:33;;;;;;;16.02;14.13;;;;;;;15.28;100.00;101798.25;5288529;28;20032;-69
2023/08/11 03:50:06;;;;;;;16.98;14.98;;;;;;;15.26;100.00;101808.28;5279377;28;20016;-69
2023/08/11 03:52:38;;;;;;;18.55;13.73;;;;;;;15.17;100.00;101799.16;5287006;28;20560;-69
2023/08/11 03:55:09;;;;;;;16.75;13.75;;;;;;;15.22;100.00;101799.63;5284378;28;20159;-69
2023/08/11 03:57:41;;;;;;;16.83;14.27;;;;;;;15.17;100.00;101798.28;5294093;28;20050;-69
2023/08/11 04:00:15;;;;;;;18.58;15.38;;;;;;;15.18;100.00;101798.16;5288363;28;20036;-69
2023/08/11 04:02:46;;;;;;;19.00;15.35;;;;;;;15.16;100.00;101793.88;5284863;28;20024;-69
2023/08/11 04:05:17;;;;;;;21.25;15.77;;;;;;;15.15;100.00;101794.84;5295326;28;20020;-69
2023/08/11 04:07:49;;;;;;;17.38;14.50;;;;;;;15.12;100.00;101801.34;5293653;28;20038;-69
2023/08/11 04:10:20;;;;;;;17.38;15.45;;;;;;;15.18;100.00;101805.38;5287285;28;20480;-69
2023/08/11 04:12:52;;;;;;;19.83;15.25;;;;;;;15.14;100.00;101809.28;5296489;28;20077;-69
2023/08/11 04:15:24;;;;;;;21.55;14.50;;;;;;;15.18;100.00;101800.00;5286658;28;20043;-69
2023/08/11 04:17:55;;;;;;;23.63;16.58;;;;;;;15.21;100.00;101803.28;5285254;28;20065;-69
2023/08/11 04:20:28;;;;;;;19.40;15.23;;;;;;;15.19;100.00;101807.09;5292988;28;20024;-69
2023/08/11 04:22:59;;;;;;;20.95;15.77;;;;;;;15.27;100.00;101808.16;5296516;28;20024;-69
2023/08/11 04:25:31;;;;;;;19.88;15.82;;;;;;;15.23;100.00;101803.19;5293384;28;20417;-69
2023/08/11 04:28:03;;;;;;;21.50;16.50;;;;;;;15.17;100.00;101801.84;5295388;28;20020;-69
2023/08/11 04:30:34;;;;;;;21.13;16.30;;;;;;;15.16;100.00;101794.75;5281654;28;20493;-69
2023/08/11 04:33:05;;;;;;;19.15;14.98;;;;;;;15.24;100.00;101796.81;5283517;28;20031;-69
2023/08/11 04:35:38;;;;;;;22.40;17.10;;;;;;;15.16;100.00;101800.13;5284620;28;20505;-69
2023/08/11 04:38:09;;;;;;;21.67;16.77;;;;;;;15.24;100.00;101804.88;5279445;28;20474;-69
2023/08/11 04:40:40;;;;;;;22.45;17.10;;;;;;;15.22;100.00;101802.31;5282370;28;20032;-69
2023/08/11 04:43:12;;;;;;;20.20;16.75;;;;;;;15.09;100.00;101799.78;5286278;28;20016;-69
2023/08/11 04:45:43;;;;;;;22.60;17.58;;;;;;;15.23;100.00;101797.81;5283584;28;20478;-69
2023/08/11 04:48:15;;;;;;;21.70;16.50;;;;;;;15.16;100.00;101799.28;5285145;28;20085;-69
2023/08/11 04:50:51;;;;;;;21.30;17.58;;;;;;;15.12;100.00;101792.44;5285197;28;20042;-69
2023/08/11 04:53:23;;;;;;;21.90;16.60;;;;;;;15.14;100.00;101796.69;5284052;28;20403;-69
2023/08/11 04:55:54;;;;;;;22.30;17.27;;;;;;;15.19;100.00;101785.59;5282455;28;20028;-69
2023/08/11 04:58:25;;;;;;;20.98;16.80;;;;;;;15.22;100.00;101782.63;5280762;28;20048;-69
2023/08/11 05:00:57;;;;;;;21.58;16.45;;;;;;;15.34;100.00;101778.09;5284082;28;20538;-69
2023/08/11 05:03:28;;;;;;;22.77;16.20;;;;;;;15.27;100.00;101775.06;5279447;28;20048;-69
2023/08/11 05:06:00;;;;;;;21.38;15.50;;;;;;;15.21;100.00;101765.66;5280538;28;20470;-69
2023/08/11 05:08:31;;;;;;;21.38;16.35;;;;;;;15.22;100.00;101769.19;5281677;28;20028;-69
2023/08/11 05:11:03;;;;;;;22.88;15.45;;;;;;;15.23;100.00;101768.22;5288786;28;20457;-69
2023/08/11 05:13:34;;;;;;;20.77;15.52;;;;;;;15.33;100.00;101771.00;5293597;28;20039;-69
2023/08/11 05:16:06;;;;;;;20.58;15.00;;;;;;;15.21;100.00;101773.72;5285376;28;20055;-69
2023/08/11 05:18:37;;;;;;;21.83;14.95;;;;;;;15.27;100.00;101775.06;5278360;28;20029;-69
2023/08/11 05:21:08;;;;;;;19.33;15.13;;;;;;;15.34;100.00;101773.59;5281742;28;20461;-69
2023/08/11 05:23:40;;;;;;;18.10;15.00;;;;;;;15.33;100.00;101768.31;5277884;28;20119;-69
2023/08/11 05:26:11;;;;;;;20.17;14.90;;;;;;;15.37;100.00;101775.16;5284479;28;20025;-69
2023/08/11 05:28:43;;;;;;;18.42;14.70;;;;;;;15.31;100.00;101776.50;5283380;28;20028;-69
2023/08/11 05:31:15;;;;;;;18.95;14.45;;;;;;;15.41;100.00;101773.91;5282036;28;20024;-69
2023/08/11 05:33:46;;;;;;;19.00;14.98;;;;;;;15.42;100.00;101768.41;5272792;28;20040;-69
2023/08/11 05:36:18;;;;;;;18.23;13.75;;;;;;;15.44;100.00;101762.94;5281338;28;20023;-71
2023/08/11 05:38:49;;;;;;;18.83;13.85;;;;;;;15.39;100.00;101768.66;5277959;28;20023;-69
2023/08/11 05:41:21;;;;;;;18.95;12.77;;;;;;;15.43;100.00;101764.72;5277162;28;21474;-69
2023/08/11 05:43:52;;;;;;;16.38;12.88;;;;;;;15.44;100.00;101768.31;5283572;28;20023;-69
2023/08/11 05:46:24;;;;;;;15.75;13.45;;;;;;;15.57;100.00;101770.81;5283064;28;20020;-69
2023/08/11 05:48:55;;;;;;;17.55;12.68;;;;;;;15.62;100.00;101769.44;5282652;28;20032;-69
2023/08/11 05:51:27;;;;;;;14.82;12.45;;;;;;;15.56;100.00;101761.91;5279655;28;20099;-69
2023/08/11 05:53:58;;;;;;;16.42;12.07;;;;;;;15.56;100.00;101766.44;5282067;28;20023;-69
2023/08/11 05:56:29;;;;;;;18.85;12.80;;;;;;;15.59;100.00;101768.84;5287891;28;20055;-69
2023/08/11 05:59:01;;;;;;;16.80;11.95;;;;;;;15.68;100.00;101768.94;5281284;28;20027;-69
2023/08/11 06:01:33;;;;;;;18.33;12.90;;;;;;;15.65;100.00;101763.81;5288482;28;20058;-69
2023/08/11 06:04:04;;;;;;;17.63;12.07;;;;;;;15.79;100.00;101765.38;5275922;28;20032;-69
2023/08/11 06:06:36;;;;;;;13.32;11.38;;;;;;;15.73;100.00;101768.59;5275446;28;20060;-69
2023/08/11 06:09:08;;;;;;;15.35;11.45;;;;;;;15.88;100.00;101775.38;5277118;28;20395;-69
2023/08/11 06:11:40;;;;;;;16.90;11.05;;;;;;;15.92;100.00;101764.38;5289538;28;20046;-69
2023/08/11 06:14:11;;;;;;;16.40;10.60;;;;;;;15.89;100.00;101765.47;5289168;28;20449;-69
2023/08/11 06:16:43;;;;;;;13.80;10.57;;;;;;;15.92;100.00;101762.53;5284561;28;20034;-69
2023/08/11 06:19:16;;;;;;;15.93;10.68;;;;;;;15.97;100.00;101771.03;5293527;28;20544;-69
2023/08/11 06:21:47;;;;;;;14.30;10.20;;;;;;;16.02;100.00;101767.97;5284012;28;20085;-69
2023/08/11 06:24:20;;;;;;;12.88;9.20;;;;;;;16.09;100.00;101769.16;5283442;28;20032;-69
2023/08/11 06:26:51;;;;;;;13.45;10.05;;;;;;;16.19;100.00;101766.53;5279763;28;20035;-69
2023/08/11 06:29:23;;;;;;;12.65;10.50;;;;;;;16.19;100.00;101763.84;5280065;28;20024;-69
2023/08/11 06:31:54;;;;;;;12.90;8.98;;;;;;;16.32;100.00;101760.94;5284763;28;20016;-69
2023/08/11 06:34:25;;;;;;;13.15;8.55;;;;;;;16.40;100.00;101763.84;5278420;28;20028;-69
2023/08/11 06:36:57;;;;;;;11.15;7.78;;;;;;;16.43;100.00;101774.31;5296229;28;20055;-69
2023/08/11 06:39:28;;;;;;;12.85;8.68;;;;;;;16.42;100.00;101765.41;5286023;28;20070;-69
2023/08/11 06:42:00;;;;;;;12.85;8.30;;;;;;;16.54;100.00;101774.25;5280384;28;20028;-69
2023/08/11 06:44:31;;;;;;;10.18;7.38;;;;;;;16.61;100.00;101771.91;5285935;28;20024;-69
2023/08/11 06:47:02;;;;;;;10.00;6.68;;;;;;;16.55;100.00;101778.66;5271463;28;20074;-69
2023/08/11 06:49:34;;;;;;;12.23;7.70;;;;;;;16.70;100.00;101778.31;5279680;28;20051;-69
2023/08/11 06:52:05;;;;;;;10.40;7.55;;;;;;;16.88;100.00;101775.88;5281220;28;20047;-69
2023/08/11 06:54:39;;;;;;;11.77;6.60;;;;;;;16.87;100.00;101772.31;5278117;28;20566;-69
2023/08/11 06:57:10;;;;;;;8.65;6.03;;;;;;;16.89;100.00;101775.72;5279738;28;20038;-69
2023/08/11 06:59:42;;;;;;;8.98;6.15;;;;;;;17.12;100.00;101778.22;5283721;28;20415;-69
2023/08/11 07:02:14;;;;;;;9.85;6.38;;;;;;;17.18;100.00;101781.22;5278030;28;20492;-70
2023/08/11 07:04:45;;;;;;;8.75;6.40;;;;;;;17.37;100.00;101780.44;5283234;28;20446;-70
2023/08/11 07:07:16;;;;;;;10.38;6.22;;;;;;;17.27;100.00;101779.53;5278558;28;20032;-69
2023/08/11 07:09:48;;;;;;;8.95;5.85;;;;;;;17.34;100.00;101783.38;5285579;28;20370;-70
2023/08/11 07:12:19;;;;;;;10.10;5.80;;;;;;;17.52;100.00;101778.16;5296095;28;20026;-69
2023/08/11 07:14:51;;;;;;;8.20;5.70;;;;;;;17.69;100.00;101778.47;5290513;28;20031;-69
2023/08/11 07:17:23;;;;;;;7.47;4.95;;;;;;;17.86;100.00;101783.19;5288779;28;20032;-69
2023/08/11 07:19:54;;;;;;;7.85;5.25;;;;;;;17.81;100.00;101778.19;5285882;28;20028;-69
2023/08/11 07:22:25;;;;;;;8.73;5.50;;;;;;;18.03;100.00;101777.06;5288674;28;20111;-69
2023/08/11 07:24:57;;;;;;;8.98;5.32;;;;;;;18.08;100.00;101779.31;5291842;28;20020;-69
2023/08/11 07:27:28;;;;;;;8.75;5.38;;;;;;;18.24;100.00;101778.75;5296519;28;20028;-70
2023/08/11 07:30:00;;;;;;;10.18;5.00;;;;;;;18.46;100.00;101785.66;5280992;28;20036;-70
2023/08/11 07:32:31;;;;;;;8.95;5.10;;;;;;;18.60;100.00;101784.34;5294873;28;20035;-70
2023/08/11 07:35:03;;;;;;;9.05;5.10;;;;;;;18.56;100.00;101778.41;5299698;28;20028;-70
2023/08/11 07:37:34;;;;;;;7.78;4.55;;;;;;;18.66;100.00;101778.38;5299361;28;20035;-70
2023/08/11 07:40:06;;;;;;;8.65;5.00;;;;;;;18.77;100.00;101778.19;5282175;28;20475;-69
2023/08/11 07:42:38;;;;;;;7.90;4.75;;;;;;;18.89;100.00;101768.06;5294019;28;20040;-69
2023/08/11 07:45:10;;;;;;;8.27;4.75;;;;;;;19.18;100.00;101772.47;5279417;28;20466;-69
2023/08/11 07:47:41;;;;;;;6.15;4.25;;;;;;;19.13;100.00;101781.03;5289667;28;20025;-69
2023/08/11 07:50:13;;;;;;;9.68;4.85;;;;;;;19.34;100.00;101778.06;5286083;28;20032;-69
2023/08/11 07:52:44;;;;;;;7.57;4.47;;;;;;;19.42;100.00;101782.69;5283726;28;20032;-70
2023/08/11 07:55:15;;;;;;;8.80;4.32;;;;;;;19.58;100.00;101779.34;5288998;28;20039;-72
2023/08/11 07:57:47;;;;;;;8.88;4.60;;;;;;;19.54;100.00;101788.75;5291686;28;20024;-69
2023/08/11 08:00:21;;;;;;;8.50;3.92;;;;;;;19.64;100.00;101786.84;5292130;28;20055;-69
2023/08/11 08:02:53;;;;;;;6.75;4.40;;;;;;;19.98;100.00;101775.31;5291274;28;20446;-73
2023/08/11 08:05:25;;;;;;;7.63;4.43;;;;;;;20.12;100.00;101776.63;5295195;28;20524;-71
2023/08/11 08:07:56;;;;;;;6.53;4.40;;;;;;;20.06;100.00;101786.22;5292646;28;20051;-68
2023/08/11 08:10:28;;;;;;;8.00;3.88;;;;;;;20.12;100.00;101777.47;5289204;28;20024;-68
2023/08/11 08:12:59;;;;;;;6.80;4.18;;;;;;;20.31;100.00;101773.72;5293922;28;20032;-67
2023/08/11 08:15:31;;;;;;;6.97;4.32;;;;;;;20.59;100.00;101778.97;5292092;28;20032;-67
2023/08/11 08:18:02;;;;;;;6.68;3.72;;;;;;;20.60;100.00;101774.44;5291680;28;20494;-69
2023/08/11 08:20:34;;;;;;;8.02;4.38;;;;;;;20.54;100.00;101763.19;5281998;28;20134;-69
2023/08/11 08:23:07;;;;;;;8.48;4.07;;;;;;;20.70;100.00;101765.16;5292798;28;20024;-70
2023/08/11 08:25:40;;;;;;;5.07;3.80;;;;;;;20.76;100.00;101767.22;5293402;28;20491;-70
2023/08/11 08:28:11;;;;;;;6.88;3.85;;;;;;;20.92;100.00;101758.34;5288238;28;20028;-69
2023/08/11 08:30:42;;;;;;;6.32;3.88;;;;;;;21.15;100.00;101771.28;5281299;28;20026;-69
2023/08/11 08:33:14;;;;;;;6.45;3.80;;;;;;;21.18;100.00;101773.69;5282354;28;20108;-70
2023/08/11 08:35:45;;;;;;;7.25;3.50;;;;;;;21.50;100.00;101778.38;5279424;28;20032;-70
2023/08/11 08:38:17;;;;;;;7.28;3.65;;;;;;;21.47;100.00;101780.59;5280090;28;20020;-71
2023/08/11 08:40:49;;;;;;;8.32;3.72;;;;;;;21.45;100.00;101780.75;5279898;28;20058;-71
2023/08/11 08:43:21;;;;;;;5.78;3.38;;;;;;;21.63;100.00;101780.63;5285216;28;20027;-70
2023/08/11 08:45:56;;;;;;;8.25;3.40;;;;;;;21.86;100.00;101769.94;5284442;28;20029;-71
2023/08/11 08:48:36;;;;;;;6.53;3.55;;;;;;;21.84;100.00;101771.13;5292789;28;20031;-68
2023/08/11 08:51:08;;;;;;;7.28;3.22;;;;;;;22.21;100.00;101776.03;5288812;28;20020;-68
2023/08/11 08:53:40;;;;;;;6.90;3.70;;;;;;;22.12;100.00;101775.19;5280275;27;20032;-71
2023/08/11 08:56:12;;;;;;;6.13;2.95;;;;;;;22.16;100.00;101772.97;5283357;28;20425;-70
2023/08/11 08:58:44;;;;;;;7.25;3.40;;;;;;;22.44;100.00;101764.50;5282370;28;20410;-71
2023/08/11 09:01:16;;;;;;;8.00;3.00;;;;;;;22.33;100.00;101762.97;5287276;28;20047;-70
2023/08/11 09:03:48;;;;;;;4.78;2.75;;;;;;;22.45;100.00;101772.47;5293873;28;20023;-71
2023/08/11 09:06:20;;;;;;;6.88;3.05;;;;;;;22.50;100.00;101767.34;5287837;28;20039;-71
2023/08/11 09:08:51;;;;;;;5.93;3.25;;;;;;;22.91;100.00;101769.09;5303205;28;20375;-72
2023/08/11 09:11:23;;;;;;;7.15;3.40;;;;;;;22.88;100.00;101766.75;5283781;28;20030;-72
2023/08/11 09:14:04;;;;;;;4.15;2.58;;;;;;;22.94;100.00;101765.19;5290284;28;20057;-72
2023/08/11 09:16:37;;;;;;;8.18;3.10;;;;;;;22.96;100.00;101768.59;5286333;28;20024;-70
2023/08/11 09:19:12;;;;;;;7.63;3.13;;;;;;;22.99;100.00;101770.94;5284930;28;20039;-72
2023/08/11 09:21:43;;;;;;;4.70;2.80;;;;;;;23.12;100.00;101760.34;5285727;28;20297;-70
2023/08/11 09:24:15;;;;;;;8.25;3.05;;;;;;;23.13;100.00;101763.91;5282883;28;20036;-72
2023/08/11 09:26:49;;;;;;;8.32;2.97;;;;;;;23.21;100.00;101762.00;5291042;28;20032;-70
2023/08/11 09:29:21;;;;;;;4.75;2.50;;;;;;;23.32;100.00;101751.72;5299815;28;20482;-72
2023/08/11 09:31:54;;;;;;;4.93;2.80;;;;;;;23.49;100.00;101761.50;5284383;28;20047;-72
2023/08/11 09:34:25;;;;;;;4.15;2.75;;;;;;;23.72;100.00;101758.81;5287093;28;20502;-71
2023/08/11 09:36:57;;;;;;;3.72;2.65;;;;;;;23.90;100.00;101761.25;5290564;28;20020;-72
2023/08/11 09:39:29;;;;;;;5.30;2.60;;;;;;;24.09;100.00;101757.16;5285602;28;20439;-72
2023/08/11 09:42:00;;;;;;;6.18;2.80;;;;;;;24.31;100.00;101752.66;5286086;28;20016;-74
2023/08/11 09:44:32;;;;;;;5.22;2.58;;;;;;;24.19;100.00;101749.56;5285371;28;20378;-74
2023/08/11 09:47:03;;;;;;;4.60;2.53;;;;;;;24.26;100.00;101747.78;5288482;28;20020;-73
2023/08/11 09:49:35;;;;;;;5.57;2.83;;;;;;;24.39;100.00;101746.28;5284725;28;20043;-72
2023/08/11 09:52:07;;;;;;;5.97;2.78;;;;;;;24.46;100.00;101748.06;5286364;28;20020;-71
2023/08/11 09:54:41;;;;;;;5.50;2.50;;;;;;;24.74;100.00;101749.31;5285553;28;20024;-71
2023/08/11 09:57:13;;;;;;;6.25;2.53;;;;;;;24.82;100.00;101755.53;5288518;28;20035;-73
2023/08/11 09:59:47;;;;;;;4.97;2.20;;;;;;;24.91;100.00;101752.69;5281407;28;20032;-69
2023/08/11 10:02:20;;;;;;;;;;;;;;;24.99;100.00;101747.16;5285147;28;20035;-71
2023/08/11 10:04:58;;;;;;;4.43;2.20;;;;;;;24.85;100.00;101755.19;5293413;28;20491;-70
2023/08/11 10:07:37;;;;;;;5.78;2.40;;;;;;;24.93;100.00;101756.94;5292424;28;20032;-70
2023/08/11 10:10:19;;;;;;;5.78;2.47;;;;;;;24.93;100.00;101756.09;5271167;28;20108;-71
2023/08/11 10:13:00;;;;;;;5.03;2.65;;;;;;;24.91;100.00;101755.44;5290941;28;20047;-71
2023/08/11 10:15:33;;;;;;;3.22;2.20;;;;;;;25.03;100.00;101745.72;5283756;28;20043;-70
2023/08/11 10:18:06;;;;;;;3.35;2.10;;;;;;;25.04;100.00;101742.81;5287413;28;20017;-71
2023/08/11 10:20:38;;;;;;;5.53;2.20;;;;;;;25.02;100.00;101744.88;5290084;28;20359;-70
2023/08/11 10:23:11;;;;;;;5.10;2.10;;;;;;;25.07;100.00;101741.56;5282274;28;20035;-70
2023/08/11 10:25:44;;;;;;;4.15;2.10;;;;;;;25.23;100.00;101746.81;5281734;28;20082;-71
2023/08/11 10:28:17;;;;;;;3.25;1.80;;;;;;;25.28;100.00;101749.00;5290071;28;20032;-71
2023/08/11 10:30:58;;;;;;;4.25;1.83;;;;;;;25.32;100.00;101747.56;5291868;28;20043;-71
2023/08/11 10:33:31;;;;;;;4.10;1.88;;;;;;;25.39;100.00;101733.97;5297471;28;20067;-70
2023/08/11 10:36:02;;;;;;;3.85;1.90;;;;;;;25.63;100.00;101736.31;5300937;28;20386;-70
2023/08/11 10:38:34;;;;;;;5.93;2.22;;;;;;;25.67;100.00;101735.94;5277859;28;20034;-70
2023/08/11 10:41:10;;;;;;;7.55;1.88;;;;;;;25.60;100.00;101744.94;5287726;28;20142;-70
2023/08/11 10:43:47;;;;;;;4.32;1.75;;;;;;;25.60;100.00;101746.78;5281598;28;20469;-71
2023/08/11 10:46:31;;;;;;;4.57;1.92;;;;;;;25.83;100.00;101736.53;5284993;28;20051;-69
2023/08/11 10:49:08;;;;;;;4.45;2.20;;;;;;;25.58;100.00;101736.06;5289992;28;20024;-71
2023/08/11 10:51:41;;;;;;;3.30;1.85;;;;;;;25.88;100.00;101743.28;5294491;28;20074;-71
2023/08/11 10:54:23;;;;;;;4.20;1.90;;;;;;;25.77;100.00;101734.56;5296489;28;20100;-71
2023/08/11 10:56:54;;;;;;;3.05;1.85;;;;;;;25.74;100.00;101742.31;5287420;28;20016;-71
2023/08/11 10:59:31;;;;;;;5.00;2.10;;;;;;;25.75;100.00;101733.91;5287461;28;20066;-71
2023/08/11 11:02:02;;;;;;;4.32;1.95;;;;;;;25.81;100.00;101735.00;5300412;28;20048;-71
2023/08/11 11:04:34;;;;;;;3.53;1.92;;;;;;;26.04;100.00;101733.97;5296809;28;20519;-70
2023/08/11 11:07:05;;;;;;;4.47;1.88;;;;;;;25.93;100.00;101728.00;5306625;28;20046;-70
2023/08/11 11:09:36;;;;;;;4.13;1.85;;;;;;;25.99;100.00;101724.47;5294966;28;21429;-71
2023/08/11 11:12:08;;;;;;;4.65;2.00;;;;;;;25.95;100.00;101733.28;5304655;28;20475;-71
2023/08/11 11:14:40;;;;;;;3.97;2.03;;;;;;;26.11;100.00;101737.59;5293881;28;20034;-71
2023/08/11 11:17:13;;;;;;;5.47;2.13;;;;;;;26.39;100.00;101723.94;5310568;28;20043;-71
2023/08/11 11:19:44;;;;;;;3.90;1.92;;;;;;;26.37;100.00;101723.28;5298551;28;20046;-71
2023/08/11 11:22:16;;;;;;;4.32;2.00;;;;;;;26.31;100.00;101735.00;5296640;28;20040;-70
2023/08/11 11:24:48;;;;;;;3.90;2.20;;;;;;;26.55;100.00;101728.22;5304633;28;20136;-71
2023/08/11 11:27:21;;;;;;;3.70;1.77;;;;;;;26.53;100.00;101725.69;5288932;28;20036;-70
2023/08/11 11:30:00;;;;;;;4.73;1.70;;;;;;;26.42;100.00;101726.25;5290476;28;20571;-71
2023/08/11 11:32:31;;;;;;;4.63;1.80;;;;;;;26.39;100.00;101734.88;5289668;28;20338;-70